Bow Victor — LAHC2 — position and weather

sailwx.info

Track history (hours):
 
Tides and Currents Weather Stations Pressure Air Temp Water Temp Dewpoint Dewpoint Depression Visibility Wind Speed Wind Dir Waves Ship Positions

Bow Victor

Last reported at 2015-Mar-31 07:33 UTC. Time now 2015-Mar-31 08:28 UTC.
Position N 37°04' W 001°05'.

Length 183 m; draft 8.1 m.

Type: Tanker. MMSI: 257873000.

Date/timePositionNaut miles runAvg speedWind from/ knotsBaromVisibWave heightAir tempDewpointWater temp
2015-Mar-31 07:33N 37°04' W 001°05'1313.3
2015-Mar-31 06:33N 37°12' W 000°51'1313.0
2015-Mar-31 05:33N 37°20' W 000°38'1413.5
2015-Mar-31 04:33N 37°28' W 000°25'1313.2
2015-Mar-31 03:33N 37°38' W 000°14'1313.4
2015-Mar-31 02:33N 37°50' W 000°06'1313.4
2015-Mar-31 01:33N 38°01' E 000°04'108 3.4
2015-Mar-29 17:25N 39°48' E 000°30'1112.9
2015-Mar-29 16:33N 39°42' E 000°43'1413.3
2015-Mar-29 15:32N 39°36' E 000°59'1313.4
2015-Mar-29 14:33N 39°30' E 001°14'1313.1
2015-Mar-29 13:33N 39°24' E 001°29'1413.5
2015-Mar-29 12:33N 39°18' E 001°45'1413.7
2015-Mar-29 11:33N 39°13' E 002°01'1313.4
2015-Mar-29 10:33N 39°06' E 002°16'1313.4
2015-Mar-29 09:33N 38°59' E 002°31'1313.3
2015-Mar-29 08:33N 38°53' E 002°46'1313.2
2015-Mar-29 07:34N 38°48' E 003°01'1313.1
2015-Mar-29 06:33N 38°43' E 003°17'1413.4
2015-Mar-29 05:32N 38°40' E 003°34'1313.1
2015-Mar-29 04:33N 38°38' E 003°50'1313.4
2015-Mar-29 03:33N 38°35' E 004°07'20511.8
2015-Mar-28 10:06N 37°54' E 008°23'298 9.0
2015-Mar-27 01:07N 36°22' E 014°19'  
2015-Mar-22 11:08N 37°36' E 025°41'1212.8
2015-Mar-22 10:11N 37°26' E 025°51'3212.0
2015-Mar-22 07:30N 36°59' E 026°11'  
Track history (hours):
 
Tides and Currents Weather Stations Pressure Air Temp Water Temp Dewpoint Dewpoint Depression Visibility Wind Speed Wind Dir Waves Ship Positions

Bow Victor

Last reported at 2015-Mar-31 07:33 UTC. Time now 2015-Mar-31 08:28 UTC.
Position N 37°04' W 001°05'.

Length 183 m; draft 8.1 m.

Type: Tanker. MMSI: 257873000.

Date/timePositionNaut miles runAvg speedWind from/ knotsBaromVisibWave heightAir tempDewpointWater temp
2015-Mar-31 07:33N 37°04' W 001°05'1313.3
2015-Mar-31 06:33N 37°12' W 000°51'1313.0
2015-Mar-31 05:33N 37°20' W 000°38'1413.5
2015-Mar-31 04:33N 37°28' W 000°25'1313.2
2015-Mar-31 03:33N 37°38' W 000°14'1313.4
2015-Mar-31 02:33N 37°50' W 000°06'1313.4
2015-Mar-31 01:33N 38°01' E 000°04'108 3.4
2015-Mar-29 17:25N 39°48' E 000°30'1112.9
2015-Mar-29 16:33N 39°42' E 000°43'1413.3
2015-Mar-29 15:32N 39°36' E 000°59'1313.4
2015-Mar-29 14:33N 39°30' E 001°14'1313.1
2015-Mar-29 13:33N 39°24' E 001°29'1413.5
2015-Mar-29 12:33N 39°18' E 001°45'1413.7
2015-Mar-29 11:33N 39°13' E 002°01'1313.4
2015-Mar-29 10:33N 39°06' E 002°16'1313.4
2015-Mar-29 09:33N 38°59' E 002°31'1313.3
2015-Mar-29 08:33N 38°53' E 002°46'1313.2
2015-Mar-29 07:34N 38°48' E 003°01'1313.1
2015-Mar-29 06:33N 38°43' E 003°17'1413.4
2015-Mar-29 05:32N 38°40' E 003°34'1313.1
2015-Mar-29 04:33N 38°38' E 003°50'1313.4
2015-Mar-29 03:33N 38°35' E 004°07'20511.8
2015-Mar-28 10:06N 37°54' E 008°23'298 9.0
2015-Mar-27 01:07N 36°22' E 014°19'  
2015-Mar-22 11:08N 37°36' E 025°41'1212.8
2015-Mar-22 10:11N 37°26' E 025°51'3212.0
2015-Mar-22 07:30N 36°59' E 026°11'  

Dump ship's entire track history